Time;durP1;ratioP1;P1;durP2;ratioP2;P2;SDS_P1;SDS_P2;PMS_P1;PMS_P2;Temp;Humidity;BMP_temperature;BMP_pressure;BME280_temperature;BME280_humidity;BME280_pressure;Samples;Min_cycle;Max_cycle;Signal;HPM_P1;HPM_P2
2022/11/08 00:01:30;;;;;;;5.10;2.22;;;15.60;69.00;;;;;;5040990;28;20055;-54
2022/11/08 00:03:09;;;;;;;5.10;1.45;;;15.70;69.40;;;;;;5035237;28;20045;-54
2022/11/08 00:13:57;;;;;;;3.72;1.85;;;15.70;68.20;;;;;;5036192;28;20116;-54
2022/11/08 00:16:24;;;;;;;5.15;1.60;;;15.70;68.00;;;;;;5040106;28;20052;-54
2022/11/08 00:18:51;;;;;;;3.10;1.08;;;15.70;68.00;;;;;;4999968;28;1076252;-54
2022/11/08 00:21:17;;;;;;;3.00;1.70;;;15.60;68.00;;;;;;5027455;28;20120;-52
2022/11/08 00:23:46;;;;;;;3.15;1.73;;;15.60;68.10;;;;;;5039115;28;20422;-54
2022/11/08 00:26:17;;;;;;;4.38;1.25;;;15.60;68.20;;;;;;5043291;28;20091;-52
2022/11/08 00:28:46;;;;;;;5.28;1.45;;;15.50;68.20;;;;;;5035100;28;20124;-54
2022/11/08 00:31:15;;;;;;;2.80;1.70;;;15.50;68.40;;;;;;5050707;28;20072;-53
2022/11/08 00:33:44;;;;;;;3.33;1.60;;;15.50;68.50;;;;;;5037462;28;20043;-53
2022/11/08 00:36:14;;;;;;;6.05;1.73;;;15.50;68.50;;;;;;5040826;28;20041;-51
2022/11/08 00:38:42;;;;;;;3.88;1.20;;;15.40;68.40;;;;;;5034216;28;20131;-54
2022/11/08 00:41:10;;;;;;;6.80;1.80;;;15.40;68.40;;;;;;5050800;28;20037;-52
2022/11/08 00:43:36;;;;;;;2.47;1.42;;;15.40;68.40;;;;;;5035899;28;20049;-54
2022/11/08 00:46:04;;;;;;;4.13;1.60;;;15.30;68.40;;;;;;5039508;28;20052;-54
2022/11/08 00:48:32;;;;;;;3.53;1.60;;;15.30;68.40;;;;;;5049336;28;20041;-54
2022/11/08 00:51:09;;;;;;;3.40;1.33;;;15.30;68.40;;;;;;5049790;28;20045;-53
2022/11/08 00:53:37;;;;;;;3.85;1.45;;;15.20;68.50;;;;;;5039447;28;20072;-54
2022/11/08 00:56:07;;;;;;;6.47;1.65;;;15.20;68.50;;;;;;5040983;28;20048;-53
2022/11/08 00:58:36;;;;;;;7.55;2.88;;;15.10;68.50;;;;;;5050476;28;20390;-54
2022/11/08 01:01:12;;;;;;;2.10;1.63;;;15.10;68.70;;;;;;5037147;28;20033;-53
2022/11/08 01:03:41;;;;;;;2.90;1.60;;;15.00;68.80;;;;;;5028146;28;20041;-54
2022/11/08 01:06:10;;;;;;;5.38;1.63;;;15.00;68.70;;;;;;5041934;28;20037;-54
2022/11/08 01:08:37;;;;;;;4.00;1.20;;;15.00;68.90;;;;;;5049925;28;20048;-54
2022/11/08 01:11:08;;;;;;;4.38;2.00;;;14.90;68.90;;;;;;5040767;28;20383;-54
2022/11/08 01:13:35;;;;;;;4.63;1.50;;;14.90;69.00;;;;;;5044201;28;20057;-53
2022/11/08 01:16:09;;;;;;;3.55;2.03;;;14.90;69.00;;;;;;5038362;28;20044;-54
2022/11/08 01:18:38;;;;;;;2.70;1.83;;;14.80;69.10;;;;;;5030232;28;20099;-53
2022/11/08 01:21:05;;;;;;;4.75;1.35;;;14.80;69.10;;;;;;5024127;28;20060;-53
2022/11/08 01:23:35;;;;;;;3.75;1.20;;;14.80;69.20;;;;;;5038694;28;20070;-54
2022/11/08 01:26:15;;;;;;;2.53;1.23;;;14.70;69.20;;;;;;5045667;28;20570;-54
2022/11/08 01:28:45;;;;;;;3.20;1.38;;;14.70;69.30;;;;;;5044629;28;20044;-54
2022/11/08 01:31:20;;;;;;;5.18;2.25;;;14.70;69.40;;;;;;5027796;28;20068;-54
2022/11/08 01:33:47;;;;;;;2.90;1.17;;;14.70;69.40;;;;;;5029260;28;20625;-53
2022/11/08 01:36:21;;;;;;;2.67;1.58;;;14.60;69.30;;;;;;5029027;28;20514;-54
2022/11/08 01:38:53;;;;;;;3.25;1.42;;;14.60;69.40;;;;;;5027734;28;20041;-54
2022/11/08 01:41:21;;;;;;;4.32;2.13;;;14.60;69.60;;;;;;5042862;28;20045;-54
2022/11/08 01:43:58;;;;;;;3.80;1.60;;;14.60;69.50;;;;;;5044182;28;20412;-53
2022/11/08 01:46:34;;;;;;;2.53;1.35;;;14.50;69.80;;;;;;5050208;28;20045;-53
2022/11/08 01:49:05;;;;;;;1.85;1.20;;;14.50;69.60;;;;;;5036708;28;20068;-54
2022/11/08 01:51:37;;;;;;;2.10;1.20;;;14.50;69.70;;;;;;5039163;28;20050;-54
2022/11/08 01:54:21;;;;;;;4.88;1.88;;;14.40;69.70;;;;;;5048004;28;20041;-54
2022/11/08 01:56:54;;;;;;;3.15;1.75;;;14.40;69.90;;;;;;5030769;28;20052;-54
2022/11/08 01:59:21;;;;;;;4.32;1.50;;;14.40;69.80;;;;;;5041904;28;20506;-49
2022/11/08 02:01:53;;;;;;;2.35;1.10;;;14.40;69.80;;;;;;5044928;28;20120;-53
2022/11/08 02:04:20;;;;;;;2.25;1.48;;;14.40;69.80;;;;;;5052685;28;20064;-51
2022/11/08 02:06:52;;;;;;;4.32;1.40;;;14.40;70.40;;;;;;5044302;28;20390;-50
2022/11/08 02:09:22;;;;;;;4.95;1.75;;;14.30;69.80;;;;;;5045689;28;20132;-50
2022/11/08 02:11:53;;;;;;;3.33;1.70;;;14.30;69.80;;;;;;5046085;28;20047;-50
2022/11/08 02:14:20;;;;;;;3.55;1.50;;;14.30;69.80;;;;;;5052953;28;20044;-53
2022/11/08 02:16:54;;;;;;;2.08;1.30;;;14.30;69.80;;;;;;5037511;28;20076;-53
2022/11/08 02:19:41;;;;;;;3.35;1.45;;;14.30;69.70;;;;;;5043534;28;20041;-51
2022/11/08 02:22:21;;;;;;;3.67;1.40;;;14.30;69.90;;;;;;5045373;28;20038;-50
2022/11/08 02:24:53;;;;;;;6.38;1.67;;;14.20;69.80;;;;;;5031231;28;20076;-51
2022/11/08 02:27:21;;;;;;;;;;;14.10;69.60;;;;;;5035573;28;20041;-53
2022/11/08 02:29:54;;;;;;;3.35;1.48;;;14.20;69.80;;;;;;5044604;28;20411;-53
2022/11/08 02:32:22;;;;;;;2.85;1.30;;;14.20;69.30;;;;;;5053320;28;20492;-53
2022/11/08 02:35:00;;;;;;;4.15;1.38;;;14.10;69.30;;;;;;5038347;28;20073;-54
2022/11/08 02:37:31;;;;;;;1.90;0.90;;;14.10;69.30;;;;;;5034335;28;20494;-52
2022/11/08 02:39:58;;;;;;;2.57;1.60;;;14.00;69.30;;;;;;5044289;28;20072;-50
2022/11/08 02:42:27;;;;;;;3.88;1.48;;;14.00;69.30;;;;;;5051856;28;20071;-53
2022/11/08 02:44:55;;;;;;;4.30;1.40;;;14.00;69.30;;;;;;5038112;28;20045;-50
2022/11/08 02:47:24;;;;;;;3.90;1.83;;;13.90;69.40;;;;;;5044217;28;20046;-49
2022/11/08 02:49:50;;;;;;;6.18;2.05;;;13.90;69.60;;;;;;5052177;28;20539;-50
2022/11/08 02:52:19;;;;;;;4.55;2.17;;;13.80;69.60;;;;;;5050102;28;20599;-52
2022/11/08 02:54:48;;;;;;;5.90;2.20;;;13.80;69.60;;;;;;5031345;28;20061;-50
2022/11/08 02:57:17;;;;;;;2.72;2.33;;;13.80;69.60;;;;;;5041701;28;20128;-53
2022/11/08 02:59:47;;;;;;;1.90;1.73;;;13.80;69.70;;;;;;5012148;28;20049;-53
2022/11/08 03:02:14;;;;;;;5.32;2.15;;;13.70;69.70;;;;;;5018254;28;20066;-53
2022/11/08 03:04:45;;;;;;;2.72;2.30;;;13.70;69.70;;;;;;5035123;28;20041;-53
2022/11/08 03:07:11;;;;;;;4.18;2.10;;;13.70;70.00;;;;;;5047306;28;20448;-53
2022/11/08 03:09:38;;;;;;;2.45;2.25;;;13.70;70.20;;;;;;5046730;28;20055;-54
2022/11/08 03:12:06;;;;;;;5.10;2.08;;;13.70;70.40;;;;;;5037112;28;20497;-53
2022/11/08 03:14:35;;;;;;;4.45;1.92;;;13.70;70.50;;;;;;5041659;28;20053;-54
2022/11/08 03:17:07;;;;;;;6.63;2.60;;;13.70;70.60;;;;;;5042249;28;20103;-54
2022/11/08 03:19:44;;;;;;;2.60;1.95;;;13.70;70.60;;;;;;5032616;28;20095;-54
2022/11/08 03:22:14;;;;;;;4.88;2.35;;;13.70;70.70;;;;;;5031366;28;20599;-54
2022/11/08 03:24:50;;;;;;;2.28;1.67;;;13.70;70.60;;;;;;5034255;28;20041;-54
2022/11/08 03:27:18;;;;;;;4.25;1.67;;;13.70;70.70;;;;;;5048326;28;20052;-53
2022/11/08 03:29:50;;;;;;;3.55;1.70;;;13.70;70.70;;;;;;5051802;28;20045;-53
2022/11/08 03:32:19;;;;;;;3.75;1.75;;;13.60;70.70;;;;;;5031164;28;20037;-53
2022/11/08 03:34:51;;;;;;;4.50;1.52;;;13.60;70.70;;;;;;5041498;28;20053;-53
2022/11/08 03:37:18;;;;;;;;;;;13.60;70.70;;;;;;5048796;28;20051;-54
2022/11/08 03:39:45;;;;;;;4.50;1.40;;;13.70;71.00;;;;;;5038377;28;19932;-54
2022/11/08 03:42:12;;;;;;;3.65;1.45;;;13.70;70.40;;;;;;5044103;28;20041;-53
2022/11/08 03:44:41;;;;;;;2.30;1.30;;;13.60;70.50;;;;;;5051184;28;20049;-54
2022/11/08 03:47:10;;;;;;;6.55;1.58;;;13.60;70.60;;;;;;5051494;28;20033;-53
2022/11/08 03:49:37;;;;;;;2.35;1.35;;;13.60;70.70;;;;;;5027182;28;20045;-51
2022/11/08 03:52:03;;;;;;;3.17;1.50;;;13.60;70.80;;;;;;5038493;28;20498;-52
2022/11/08 03:54:32;;;;;;;4.05;1.50;;;13.60;70.90;;;;;;5040558;28;20084;-54
2022/11/08 03:56:59;;;;;;;4.65;1.45;;;13.60;70.90;;;;;;5051440;28;20043;-54
2022/11/08 03:59:33;;;;;;;8.15;2.03;;;13.50;70.90;;;;;;5035671;28;20038;-53
2022/11/08 04:02:00;;;;;;;2.00;1.52;;;13.60;71.00;;;;;;5043022;28;20068;-53
2022/11/08 04:04:31;;;;;;;3.95;1.75;;;13.50;71.00;;;;;;5048702;28;20479;-53
2022/11/08 04:06:57;;;;;;;5.18;1.80;;;13.50;71.00;;;;;;5051194;28;20047;-54
2022/11/08 04:09:24;;;;;;;2.60;1.50;;;13.50;71.00;;;;;;5031177;28;20121;-54
2022/11/08 04:21:17;;;;;;;3.47;1.95;;;13.40;71.00;;;;;;5029528;28;20045;-54
2022/11/08 04:22:59;;;;;;;2.90;2.05;;;13.40;71.30;;;;;;5028216;28;20057;-54
2022/11/08 04:25:25;;;;;;;2.13;1.92;;;13.40;71.30;;;;;;5030434;28;20040;-53
2022/11/08 04:28:00;;;;;;;2.88;2.00;;;13.40;71.50;;;;;;5030056;28;20048;-54
2022/11/08 04:30:27;;;;;;;2.83;2.50;;;13.40;71.60;;;;;;5043609;28;20124;-52
2022/11/08 04:33:01;;;;;;;2.55;1.90;;;13.40;71.70;;;;;;5044142;28;20059;-53
2022/11/08 04:35:33;;;;;;;3.78;2.55;;;13.40;72.00;;;;;;5050390;28;20040;-53
2022/11/08 04:38:01;;;;;;;1.90;1.60;;;13.40;71.80;;;;;;5035248;28;20076;-54
2022/11/08 04:40:30;;;;;;;4.03;2.33;;;13.40;71.60;;;;;;5040430;28;20048;-53
2022/11/08 04:43:01;;;;;;;3.42;1.95;;;13.40;71.60;;;;;;5049981;28;20044;-53
2022/11/08 04:45:28;;;;;;;5.82;1.75;;;13.40;71.60;;;;;;5047127;28;20041;-53
2022/11/08 04:47:59;;;;;;;4.72;1.83;;;13.40;71.70;;;;;;5031820;28;20041;-52
2022/11/08 04:50:25;;;;;;;5.00;2.08;;;13.40;71.70;;;;;;5040131;28;20041;-53
2022/11/08 04:52:53;;;;;;;2.60;1.52;;;13.30;71.80;;;;;;5050309;28;20132;-53
2022/11/08 04:55:23;;;;;;;4.07;1.88;;;13.40;71.90;;;;;;5035374;28;20071;-54
2022/11/08 04:57:55;;;;;;;4.18;2.17;;;13.30;71.90;;;;;;5041719;28;20041;-53
2022/11/08 05:00:23;;;;;;;3.38;2.05;;;13.30;71.90;;;;;;5047350;28;20099;-53
2022/11/08 05:02:52;;;;;;;3.40;2.45;;;13.30;72.50;;;;;;5042787;28;20129;-52
2022/11/08 05:05:19;;;;;;;4.75;2.08;;;13.30;71.90;;;;;;5024303;28;20048;-54
2022/11/08 05:07:46;;;;;;;4.55;2.35;;;13.30;71.90;;;;;;5042197;28;20056;-54
2022/11/08 05:10:19;;;;;;;3.63;2.03;;;13.50;72.00;;;;;;5042001;28;20069;-53
2022/11/08 05:12:48;;;;;;;2.22;1.92;;;13.30;71.90;;;;;;5044137;28;20051;-54
2022/11/08 05:15:20;;;;;;;6.53;2.38;;;13.30;71.90;;;;;;5033226;28;20048;-54
2022/11/08 05:17:46;;;;;;;2.30;2.10;;;13.30;71.90;;;;;;5042472;28;20477;-53
2022/11/08 05:23:25;;;;;;;2.67;1.85;;;13.30;72.00;;;;;;4985235;28;20055;-54
2022/11/08 05:25:53;;;;;;;4.97;1.98;;;13.30;72.00;;;;;;5034495;28;20047;-53
2022/11/08 05:28:20;;;;;;;5.55;1.77;;;13.30;72.00;;;;;;5041460;28;20064;-54
2022/11/08 05:30:56;;;;;;;2.13;1.50;;;13.30;72.60;;;;;;5034674;28;20055;-54
2022/11/08 05:33:25;;;;;;;5.22;1.92;;;13.30;72.30;;;;;;5033107;28;20042;-53
2022/11/08 05:35:52;;;;;;;3.28;1.90;;;13.30;72.00;;;;;;5040737;28;20516;-53
2022/11/08 05:38:19;;;;;;;2.90;1.60;;;13.30;72.00;;;;;;5050767;28;20420;-55
2022/11/08 05:40:46;;;;;;;5.18;2.17;;;13.30;72.00;;;;;;5037503;28;20532;-51
2022/11/08 05:43:14;;;;;;;3.42;2.40;;;13.30;72.00;;;;;;5039368;28;20049;-52
2022/11/08 05:45:41;;;;;;;2.65;2.20;;;13.30;72.00;;;;;;5045848;28;20038;-52
2022/11/08 05:48:07;;;;;;;2.22;2.03;;;13.30;72.00;;;;;;5041659;28;20034;-53
2022/11/08 05:50:35;;;;;;;4.40;2.45;;;13.30;71.90;;;;;;5041460;28;20129;-50
2022/11/08 05:53:11;;;;;;;3.47;2.28;;;13.30;71.90;;;;;;5044679;28;20098;-54
2022/11/08 05:55:40;;;;;;;3.92;1.95;;;13.30;71.80;;;;;;5045266;28;20590;-52
2022/11/08 05:58:07;;;;;;;3.85;1.70;;;13.30;71.80;;;;;;5043902;28;20563;-53
2022/11/08 06:00:34;;;;;;;3.53;2.60;;;13.30;71.80;;;;;;5041170;28;20045;-51
2022/11/08 06:03:01;;;;;;;2.60;2.00;;;13.30;71.80;;;;;;5030300;28;20486;-52
2022/11/08 06:05:28;;;;;;;3.85;1.75;;;13.20;71.80;;;;;;5035671;28;20414;-51
2022/11/08 06:07:55;;;;;;;5.05;2.38;;;13.20;71.80;;;;;;5040216;28;20128;-52
2022/11/08 06:10:21;;;;;;;4.30;1.85;;;13.20;71.80;;;;;;5036357;28;20056;-53
2022/11/08 06:12:48;;;;;;;5.75;2.10;;;13.20;71.80;;;;;;5030440;28;20065;-53
2022/11/08 06:15:15;;;;;;;3.13;1.98;;;13.20;71.80;;;;;;5035711;28;20041;-50
2022/11/08 06:17:41;;;;;;;2.58;2.10;;;13.20;71.80;;;;;;5040800;28;20073;-54
2022/11/08 06:20:11;;;;;;;2.08;1.80;;;13.20;71.90;;;;;;5029325;28;20046;-51
2022/11/08 06:22:38;;;;;;;3.55;2.10;;;13.20;71.90;;;;;;5041870;28;20099;-54
2022/11/08 06:25:05;;;;;;;3.40;2.35;;;13.20;71.90;;;;;;5043861;28;20099;-52
2022/11/08 06:27:31;;;;;;;8.77;2.17;;;13.20;71.80;;;;;;5053366;28;20041;-53
2022/11/08 06:29:58;;;;;;;3.17;2.08;;;13.20;71.80;;;;;;5040404;28;20052;-52
2022/11/08 06:32:25;;;;;;;2.83;2.30;;;13.10;71.80;;;;;;5043485;28;20037;-53
2022/11/08 06:34:51;;;;;;;3.25;2.50;;;13.20;71.80;;;;;;5045614;28;20068;-53
2022/11/08 06:37:18;;;;;;;3.20;2.40;;;13.20;71.80;;;;;;5032903;28;20536;-51
2022/11/08 06:39:45;;;;;;;3.60;2.13;;;13.20;71.80;;;;;;5032202;28;20045;-53
2022/11/08 06:42:13;;;;;;;4.07;2.65;;;13.10;72.30;;;;;;5043914;28;20072;-53
2022/11/08 06:44:42;;;;;;;3.55;2.08;;;13.10;71.60;;;;;;5051875;28;20048;-53
2022/11/08 06:47:09;;;;;;;3.70;2.40;;;13.10;71.60;;;;;;5051862;28;20131;-53
2022/11/08 06:49:36;;;;;;;4.80;1.85;;;13.10;71.60;;;;;;5037851;28;20394;-52
2022/11/08 06:52:03;;;;;;;3.08;2.25;;;13.10;71.60;;;;;;5044539;28;20046;-53
2022/11/08 06:54:30;;;;;;;5.57;2.30;;;13.10;71.60;;;;;;5043010;28;20042;-54
2022/11/08 06:56:59;;;;;;;3.65;2.35;;;13.10;71.70;;;;;;5040677;28;20123;-53
2022/11/08 06:59:26;;;;;;;3.13;2.50;;;13.10;71.70;;;;;;5039718;28;20053;-52
2022/11/08 07:01:53;;;;;;;2.33;1.65;;;13.10;71.70;;;;;;5042671;28;20042;-52
2022/11/08 07:04:20;;;;;;;4.50;2.65;;;13.10;71.70;;;;;;5030588;28;20429;-54
2022/11/08 07:06:47;;;;;;;3.78;2.13;;;13.10;72.40;;;;;;5043380;28;20041;-53
2022/11/08 07:09:14;;;;;;;4.07;2.05;;;13.10;71.70;;;;;;5048316;28;20051;-52
2022/11/08 07:11:40;;;;;;;3.42;2.10;;;13.10;71.70;;;;;;5043505;28;20056;-53
2022/11/08 07:14:07;;;;;;;2.90;2.42;;;13.10;71.70;;;;;;5042529;28;20124;-54
2022/11/08 07:16:34;;;;;;;4.07;2.42;;;13.10;71.80;;;;;;5033033;28;20045;-53
2022/11/08 07:19:00;;;;;;;4.13;2.47;;;13.10;71.80;;;;;;5042744;28;20132;-52
2022/11/08 07:21:27;;;;;;;3.20;2.60;;;13.00;71.60;;;;;;5042804;28;20115;-52
2022/11/08 07:23:53;;;;;;;4.70;2.50;;;13.10;71.70;;;;;;5033981;28;20240;-53
2022/11/08 07:26:20;;;;;;;3.45;2.80;;;13.10;71.60;;;;;;5031868;28;20112;-55
2022/11/08 07:28:47;;;;;;;3.97;2.40;;;13.10;71.70;;;;;;5036966;28;20417;-53
2022/11/08 07:31:14;;;;;;;4.15;2.58;;;13.10;71.60;;;;;;5036295;28;20132;-53
2022/11/08 07:33:40;;;;;;;4.88;2.33;;;13.10;71.60;;;;;;5030567;28;20048;-53
2022/11/08 07:36:07;;;;;;;2.63;2.40;;;13.10;71.60;;;;;;5034469;28;20044;-53
2022/11/08 07:38:33;;;;;;;2.38;1.60;;;13.10;71.50;;;;;;5041330;28;20060;-53
2022/11/08 07:41:01;;;;;;;2.13;1.98;;;13.20;71.60;;;;;;5045894;28;20052;-52
2022/11/08 07:43:28;;;;;;;2.85;1.83;;;13.20;71.50;;;;;;5034618;28;20073;-53
2022/11/08 07:46:01;;;;;;;1.90;1.80;;;13.20;71.50;;;;;;5035831;28;20038;-53
2022/11/08 07:48:29;;;;;;;3.78;1.88;;;13.20;71.40;;;;;;5031971;28;20421;-54
2022/11/08 07:50:56;;;;;;;2.22;1.83;;;13.30;71.40;;;;;;5028523;28;20045;-54
2022/11/08 07:53:23;;;;;;;3.38;1.88;;;13.30;71.40;;;;;;5033470;28;20042;-53
2022/11/08 07:55:52;;;;;;;3.97;2.00;;;13.30;71.90;;;;;;5040263;28;20080;-54
2022/11/08 07:58:18;;;;;;;4.75;1.70;;;13.40;71.30;;;;;;5043370;28;20053;-53
2022/11/08 08:00:48;;;;;;;1.90;1.77;;;13.40;71.10;;;;;;5033755;28;20051;-53
2022/11/08 08:03:15;;;;;;;2.38;1.52;;;13.50;71.00;;;;;;5028117;28;20041;-54
2022/11/08 08:05:44;;;;;;;4.28;2.05;;;13.50;71.00;;;;;;5051783;28;20124;-53
2022/11/08 08:08:12;;;;;;;4.68;1.52;;;13.60;71.00;;;;;;5047010;28;20409;-52
2022/11/08 08:10:39;;;;;;;2.45;1.80;;;13.70;70.80;;;;;;5028126;28;20045;-53
2022/11/08 08:13:06;;;;;;;2.17;1.80;;;13.70;70.70;;;;;;5032866;28;20037;-53
2022/11/08 08:15:33;;;;;;;2.03;1.40;;;13.80;70.50;;;;;;5037656;28;20402;-53
2022/11/08 08:18:02;;;;;;;3.13;1.80;;;13.80;70.40;;;;;;5039110;28;20042;-51
2022/11/08 08:20:29;;;;;;;7.05;1.42;;;13.90;70.30;;;;;;5030910;28;20033;-52
2022/11/08 08:22:56;;;;;;;2.88;1.77;;;13.90;70.10;;;;;;5029314;28;20408;-54
2022/11/08 08:25:24;;;;;;;3.28;1.67;;;14.00;70.00;;;;;;5034785;28;20043;-52
2022/11/08 08:27:55;;;;;;;4.05;2.05;;;14.00;69.90;;;;;;5031240;28;20055;-54
2022/11/08 08:30:23;;;;;;;3.25;2.00;;;14.10;69.60;;;;;;5026318;28;20091;-52
2022/11/08 08:32:50;;;;;;;1.85;1.42;;;14.10;69.60;;;;;;5029981;28;20044;-53
2022/11/08 08:35:37;;;;;;;2.25;1.52;;;14.20;69.40;;;;;;5041369;28;20105;-53
2022/11/08 08:38:05;;;;;;;2.75;1.83;;;14.30;69.30;;;;;;5049914;28;20052;-51
2022/11/08 08:40:33;;;;;;;1.63;1.50;;;14.30;69.20;;;;;;5025846;28;20046;-49
2022/11/08 08:43:00;;;;;;;3.30;1.95;;;14.40;69.10;;;;;;5039434;28;20084;-53
2022/11/08 08:45:27;;;;;;;2.78;1.27;;;14.40;69.00;;;;;;5031812;28;20038;-52
2022/11/08 08:47:55;;;;;;;4.90;1.88;;;14.50;68.90;;;;;;5027115;28;20148;-54
2022/11/08 08:50:23;;;;;;;2.25;1.52;;;14.50;68.80;;;;;;5031226;28;20041;-52
2022/11/08 08:52:59;;;;;;;2.22;1.33;;;14.60;68.40;;;;;;5032852;28;20041;-52
2022/11/08 08:55:26;;;;;;;2.08;1.27;;;14.60;68.20;;;;;;5029256;28;20437;-52
2022/11/08 08:57:53;;;;;;;2.50;1.65;;;14.70;68.30;;;;;;5029212;28;20053;-52
2022/11/08 09:00:21;;;;;;;2.15;1.65;;;14.70;68.00;;;;;;5027654;28;20056;-50
2022/11/08 09:03:09;;;;;;;3.03;1.88;;;14.80;68.20;;;;;;5036243;28;20107;-51
2022/11/08 09:05:42;;;;;;;2.05;1.75;;;14.80;67.90;;;;;;5032474;28;20041;-52
2022/11/08 09:08:10;;;;;;;2.67;2.08;;;14.90;67.90;;;;;;5031158;28;20042;-50
2022/11/08 09:10:37;;;;;;;1.90;1.55;;;14.90;67.60;;;;;;5031186;28;20060;-50
2022/11/08 09:13:04;;;;;;;3.80;1.60;;;15.00;67.50;;;;;;5034084;28;20034;-54
2022/11/08 09:15:31;;;;;;;1.70;1.58;;;15.00;67.20;;;;;;5032281;28;20049;-50
2022/11/08 09:17:57;;;;;;;3.90;1.50;;;15.10;67.00;;;;;;5030117;28;20472;-53
2022/11/08 09:20:24;;;;;;;1.95;1.48;;;15.20;66.80;;;;;;5036448;28;20049;-51
2022/11/08 09:22:51;;;;;;;1.13;1.02;;;15.20;66.50;;;;;;5036302;28;20124;-49
2022/11/08 09:25:18;;;;;;;1.58;1.05;;;15.30;66.30;;;;;;5053941;28;20044;-51
2022/11/08 09:27:44;;;;;;;2.70;1.30;;;15.30;65.90;;;;;;5043905;28;20107;-52
2022/11/08 09:30:12;;;;;;;1.23;0.93;;;15.40;65.80;;;;;;5041337;28;20040;-49
2022/11/08 09:32:38;;;;;;;2.80;1.33;;;15.50;65.50;;;;;;5045818;28;20064;-50
2022/11/08 09:35:25;;;;;;;1.70;1.17;;;15.50;65.10;;;;;;5052189;28;20045;-54
2022/11/08 09:37:54;;;;;;;1.52;1.30;;;15.60;65.00;;;;;;5033525;28;20045;-52
2022/11/08 09:40:47;;;;;;;1.98;1.00;;;15.60;64.50;;;;;;5044767;28;20045;-50
2022/11/08 09:43:33;;;;;;;3.22;1.30;;;15.70;64.20;;;;;;5053711;28;20087;-50
2022/11/08 09:45:59;;;;;;;2.17;1.08;;;15.80;64.10;;;;;;5033528;28;20065;-49
2022/11/08 09:48:37;;;;;;;2.00;1.20;;;15.80;63.90;;;;;;5036190;28;20046;-53
2022/11/08 09:51:17;;;;;;;2.65;1.25;;;15.90;63.80;;;;;;5039980;28;20076;-54
2022/11/08 09:53:48;;;;;;;2.53;1.67;;;16.00;62.90;;;;;;5053590;28;20048;-53
2022/11/08 09:56:18;;;;;;;4.32;1.23;;;16.00;63.40;;;;;;5036983;28;20608;-51
2022/11/08 09:59:00;;;;;;;6.72;1.33;;;16.10;63.10;;;;;;5041503;28;20521;-53
2022/11/08 10:01:33;;;;;;;2.22;1.10;;;16.20;63.10;;;;;;5031852;28;20045;-53
2022/11/08 10:04:04;;;;;;;;;;;16.30;63.30;;;;;;5034150;28;20136;-52
2022/11/08 10:07:00;;;;;;;2.63;1.30;;;16.40;63.40;;;;;;5036665;28;20376;-52
2022/11/08 10:09:52;;;;;;;1.15;0.90;;;16.50;62.10;;;;;;5031914;28;20052;-49
2022/11/08 10:12:56;;;;;;;2.33;0.85;;;16.60;62.00;;;;;;5025342;28;20045;-50
2022/11/08 10:15:48;;;;;;;1.40;1.15;;;16.70;61.50;;;;;;5041485;28;20038;-54
2022/11/08 10:18:38;;;;;;;1.38;0.98;;;16.80;61.30;;;;;;5032459;28;20041;-53
2022/11/08 10:21:38;;;;;;;2.53;1.20;;;16.90;61.30;;;;;;5028076;28;20417;-51
2022/11/08 10:24:20;;;;;;;0.73;0.73;;;17.00;61.20;;;;;;5035709;28;20046;-49
2022/11/08 10:26:48;;;;;;;2.17;1.05;;;17.10;61.10;;;;;;5032442;28;20370;-52
2022/11/08 10:29:25;;;;;;;1.65;1.08;;;17.20;61.40;;;;;;5035175;28;20041;-52
2022/11/08 10:32:00;;;;;;;2.67;1.05;;;17.30;60.40;;;;;;5031425;28;20047;-54
2022/11/08 10:34:35;;;;;;;3.20;1.50;;;17.40;61.00;;;;;;5031102;28;20045;-54
2022/11/08 10:37:07;;;;;;;2.05;1.15;;;17.50;60.50;;;;;;5036159;28;20045;-54
2022/11/08 10:39:41;;;;;;;1.85;1.10;;;17.60;60.10;;;;;;5043122;28;20049;-51
2022/11/08 10:42:38;;;;;;;2.85;1.35;;;17.70;60.00;;;;;;5047519;28;20115;-50
2022/11/08 10:45:05;;;;;;;1.88;1.13;;;17.70;59.20;;;;;;5041322;28;20075;-53
2022/11/08 10:47:32;;;;;;;1.63;1.00;;;17.80;60.00;;;;;;5044169;28;20037;-53
2022/11/08 10:49:59;;;;;;;2.83;0.90;;;17.90;59.80;;;;;;5042107;28;20493;-50
2022/11/08 10:52:41;;;;;;;1.50;1.15;;;17.90;59.60;;;;;;5031000;28;20120;-54
2022/11/08 10:55:22;;;;;;;1.63;0.80;;;18.00;58.70;;;;;;5035320;28;20553;-51
2022/11/08 10:57:48;;;;;;;1.13;1.08;;;18.10;58.90;;;;;;5013197;28;20076;-53
2022/11/08 11:00:21;;;;;;;1.70;1.20;;;18.20;58.80;;;;;;5028673;28;20037;-53
2022/11/08 11:03:16;;;;;;;5.13;1.10;;;18.20;58.40;;;;;;5030864;28;20048;-53
2022/11/08 11:05:57;;;;;;;3.05;1.35;;;18.30;57.80;;;;;;5035887;28;20142;-50
2022/11/08 11:08:24;;;;;;;3.00;0.90;;;18.40;57.40;;;;;;5030103;28;20046;-51
2022/11/08 11:10:51;;;;;;;1.80;0.80;;;18.40;57.90;;;;;;5029261;28;20029;-52
2022/11/08 11:13:27;;;;;;;1.27;0.80;;;18.40;57.70;;;;;;5044786;28;20123;-55
2022/11/08 11:15:57;;;;;;;1.17;0.90;;;18.50;57.00;;;;;;5015006;28;20521;-54
2022/11/08 11:18:34;;;;;;;1.55;1.40;;;18.50;57.10;;;;;;5030663;28;20045;-52
2022/11/08 11:21:12;;;;;;;1.20;1.10;;;18.50;56.90;;;;;;5028460;28;20140;-52
2022/11/08 11:23:48;;;;;;;1.17;0.80;;;18.50;57.60;;;;;;5039612;28;20087;-54
2022/11/08 11:26:37;;;;;;;1.80;1.13;;;18.50;56.70;;;;;;5030319;28;20156;-53
2022/11/08 11:29:04;;;;;;;2.88;1.20;;;18.50;56.10;;;;;;5025807;28;20568;-50
2022/11/08 11:31:34;;;;;;;1.70;1.00;;;18.50;56.80;;;;;;5030767;28;20034;-52
2022/11/08 11:34:16;;;;;;;2.25;0.82;;;18.50;56.60;;;;;;5032888;28;20053;-51
2022/11/08 11:36:54;;;;;;;1.65;1.15;;;18.50;55.60;;;;;;5028181;28;20041;-54
2022/11/08 11:39:39;;;;;;;3.00;0.90;;;18.50;56.20;;;;;;5026403;28;20414;-50
2022/11/08 11:42:17;;;;;;;3.20;1.38;;;18.50;56.10;;;;;;5032078;28;20052;-49
2022/11/08 11:45:19;;;;;;;1.15;0.88;;;18.60;56.00;;;;;;5026743;28;20038;-54
2022/11/08 11:47:49;;;;;;;1.27;0.82;;;18.60;55.90;;;;;;5028660;28;20032;-51
2022/11/08 11:50:35;;;;;;;1.60;1.10;;;18.70;56.30;;;;;;5033305;28;20140;-54
2022/11/08 11:53:17;;;;;;;2.75;1.10;;;18.80;56.20;;;;;;5038805;23;20052;-51
2022/11/08 11:56:16;;;;;;;1.58;0.80;;;18.80;55.90;;;;;;5029359;28;20049;-47
2022/11/08 11:59:02;;;;;;;1.58;0.90;;;18.90;55.60;;;;;;5029304;28;20067;-49
2022/11/08 12:01:52;;;;;;;1.92;1.73;;;18.90;55.60;;;;;;5024073;28;20041;-50
2022/11/08 12:04:37;;;;;;;1.65;1.15;;;19.00;55.80;;;;;;4992585;28;20507;-48
2022/11/08 12:07:19;;;;;;;1.20;1.00;;;19.10;56.00;;;;;;5010849;28;20041;-47
2022/11/08 12:10:12;;;;;;;1.00;0.90;;;19.20;55.90;;;;;;5023630;28;20037;-51
2022/11/08 12:12:57;;;;;;;3.55;0.90;;;19.20;55.30;;;;;;5007719;28;20077;-47
2022/11/08 12:15:28;;;;;;;1.63;1.20;;;19.30;55.00;;;;;;5010049;28;20298;-50
2022/11/08 12:18:14;;;;;;;1.85;1.10;;;19.30;55.60;;;;;;5016840;28;20185;-47
2022/11/08 12:21:39;;;;;;;1.38;1.08;;;19.40;55.10;;;;;;5017218;28;20042;-48
2022/11/08 12:24:37;;;;;;;1.95;0.98;;;19.50;54.80;;;;;;5010272;28;20458;-46
2022/11/08 12:27:13;;;;;;;1.83;1.67;;;19.50;55.10;;;;;;5013560;28;20033;-47
2022/11/08 12:30:02;;;;;;;1.42;0.80;;;19.60;55.10;;;;;;5015840;28;20061;-48
2022/11/08 12:33:05;;;;;;;2.83;1.17;;;19.60;54.90;;;;;;4991379;28;20180;-51
2022/11/08 12:35:57;;;;;;;3.33;1.23;;;19.60;54.70;;;;;;5003093;28;20068;-48
2022/11/08 12:38:33;;;;;;;2.38;1.20;;;19.70;55.10;;;;;;5021484;28;20050;-47
2022/11/08 12:41:10;;;;;;;1.65;0.93;;;19.80;55.00;;;;;;5015948;28;20052;-49
2022/11/08 12:44:02;;;;;;;1.60;1.17;;;19.80;54.30;;;;;;5015656;28;20474;-46
2022/11/08 12:46:36;;;;;;;2.45;1.00;;;19.90;54.30;;;;;;5020661;28;20112;-47
2022/11/08 12:49:25;;;;;;;1.85;1.08;;;19.90;54.10;;;;;;5023557;28;20037;-49
2022/11/08 12:52:26;;;;;;;2.53;1.00;;;19.90;53.60;;;;;;5016156;28;20042;-47
2022/11/08 12:54:57;;;;;;;1.55;1.00;;;19.90;53.40;;;;;;5011279;28;20056;-47
2022/11/08 12:57:27;;;;;;;1.42;0.73;;;19.90;54.10;;;;;;5035274;28;20049;-47
2022/11/08 13:00:05;;;;;;;1.55;0.98;;;20.00;54.00;;;;;;5025498;28;20049;-46
2022/11/08 13:02:38;;;;;;;1.73;0.90;;;20.00;53.50;;;;;;5016396;28;20052;-48
2022/11/08 13:05:22;;;;;;;3.00;1.40;;;19.90;53.50;;;;;;5020542;28;20247;-48
2022/11/08 13:07:54;;;;;;;1.15;0.80;;;19.90;53.70;;;;;;5021017;28;20037;-46
2022/11/08 13:10:42;;;;;;;3.03;0.88;;;19.90;53.10;;;;;;5006525;28;20056;-46
2022/11/08 13:13:26;;;;;;;2.05;1.10;;;19.90;53.00;;;;;;5010940;28;20044;-47
2022/11/08 13:16:07;;;;;;;1.35;0.75;;;19.90;53.20;;;;;;5002480;28;20054;-46
2022/11/08 13:18:42;;;;;;;1.98;1.27;;;19.90;52.90;;;;;;5018116;28;20064;-47
2022/11/08 13:21:27;;;;;;;1.30;1.05;;;19.90;53.50;;;;;;5017094;28;20116;-50
2022/11/08 13:24:16;;;;;;;2.15;1.40;;;19.80;53.10;;;;;;5019345;28;20042;-49
2022/11/08 13:27:32;;;;;;;1.10;0.93;;;19.80;53.40;;;;;;5018361;28;20046;-49
2022/11/08 13:30:14;;;;;;;1.27;1.10;;;19.80;53.50;;;;;;5015922;28;20574;-49
2022/11/08 13:33:02;;;;;;;2.10;1.10;;;19.70;53.30;;;;;;5017262;28;20734;-50
2022/11/08 13:35:35;;;;;;;2.40;1.05;;;19.70;53.90;;;;;;5013631;28;20291;-49